Manokin, Maryland
Current Conditions -  °F | °C
As of 7:54 PM on Thursday 18 Dec 2014 (Local Time) from KWAL Reporting Station
Clear Clear  
Wind Chill: 35°   Ceiling: Unl
Heat Index: 35°   Visibility: 10mi
Dew Point: 25°   Wind: 3mph
Humidity: 67%   Direction: 340°NNW
Pressure: 30.11"   Gusts: NA
Location:  38.11°N, 75.76°W
Report Text: KWAL 190054Z AUTO 34003KT 10SM CLR 02/M04 A3011 RMK AO2 SLP193 T00171039
Loading
Personal Weather Stations






























Interactive Weather Map New forecast layout! Learn more

10-Day Weather Forecast

Advertisements
Track Severe Weather on mobile